sensor_id;sensor_type;location;lat;lon;timestamp;pressure;altitude;pressure_sealevel;temperature;humidity
40075;BME280;26529;51.530;11.754;2023-04-29T00:01:08;99515.09;;;19.65;44.23
40075;BME280;26529;51.530;11.754;2023-04-29T00:03:34;99510.75;;;19.64;44.31
40075;BME280;26529;51.530;11.754;2023-04-29T00:06:00;99508.91;;;19.64;44.25
40075;BME280;26529;51.530;11.754;2023-04-29T00:08:25;99498.28;;;19.64;44.38
40075;BME280;26529;51.530;11.754;2023-04-29T00:10:51;99500.94;;;19.64;44.36
40075;BME280;26529;51.530;11.754;2023-04-29T00:13:17;99496.47;;;19.65;44.17
40075;BME280;26529;51.530;11.754;2023-04-29T00:15:42;99491.16;;;19.65;44.33
40075;BME280;26529;51.530;11.754;2023-04-29T00:18:09;99493.94;;;19.63;44.36
40075;BME280;26529;51.530;11.754;2023-04-29T00:20:35;99491.16;;;19.65;44.14
40075;BME280;26529;51.530;11.754;2023-04-29T00:23:02;99496.47;;;19.65;44.36
40075;BME280;26529;51.530;11.754;2023-04-29T00:25:27;99484.97;;;19.64;44.28
40075;BME280;26529;51.530;11.754;2023-04-29T00:27:53;99478.84;;;19.64;44.25
40075;BME280;26529;51.530;11.754;2023-04-29T00:30:19;99476.41;;;19.61;44.36
40075;BME280;26529;51.530;11.754;2023-04-29T00:32:44;99474.50;;;19.63;44.34
40075;BME280;26529;51.530;11.754;2023-04-29T00:35:10;99481.59;;;19.62;44.30
40075;BME280;26529;51.530;11.754;2023-04-29T00:37:36;99483.44;;;19.62;44.23
40075;BME280;26529;51.530;11.754;2023-04-29T00:40:02;99484.25;;;19.62;44.41
40075;BME280;26529;51.530;11.754;2023-04-29T00:42:30;99487.78;;;19.63;44.37
40075;BME280;26529;51.530;11.754;2023-04-29T00:44:57;99487.03;;;19.61;44.23
40075;BME280;26529;51.530;11.754;2023-04-29T00:47:23;99491.41;;;19.62;44.29
40075;BME280;26529;51.530;11.754;2023-04-29T00:49:48;99503.00;;;19.61;44.35
40075;BME280;26529;51.530;11.754;2023-04-29T00:52:14;99502.06;;;19.62;44.36
40075;BME280;26529;51.530;11.754;2023-04-29T00:54:40;99496.72;;;19.62;44.32
40075;BME280;26529;51.530;11.754;2023-04-29T00:57:06;99497.66;;;19.61;44.25
40075;BME280;26529;51.530;11.754;2023-04-29T00:59:32;99500.34;;;19.61;44.21
40075;BME280;26529;51.530;11.754;2023-04-29T01:02:02;99505.66;;;19.61;44.39
40075;BME280;26529;51.530;11.754;2023-04-29T01:04:31;99503.97;;;19.60;44.37
40075;BME280;26529;51.530;11.754;2023-04-29T01:09:42;99507.38;;;19.62;44.37
40075;BME280;26529;51.530;11.754;2023-04-29T01:18:11;99514.59;;;19.60;44.40
40075;BME280;26529;51.530;11.754;2023-04-29T01:20:40;99508.44;;;19.59;44.32
40075;BME280;26529;51.530;11.754;2023-04-29T01:23:06;99519.09;;;19.59;44.40
40075;BME280;26529;51.530;11.754;2023-04-29T01:25:32;99518.22;;;19.59;44.31
40075;BME280;26529;51.530;11.754;2023-04-29T01:31:17;99513.78;;;19.59;44.24
40075;BME280;26529;51.530;11.754;2023-04-29T01:37:04;99511.22;;;19.58;44.39
40075;BME280;26529;51.530;11.754;2023-04-29T01:39:49;99505.78;;;19.59;44.38
40075;BME280;26529;51.530;11.754;2023-04-29T01:42:23;99505.91;;;19.58;44.41
40075;BME280;26529;51.530;11.754;2023-04-29T01:44:54;99513.88;;;19.58;44.33
40075;BME280;26529;51.530;11.754;2023-04-29T01:47:21;99504.09;;;19.58;44.27
40075;BME280;26529;51.530;11.754;2023-04-29T01:49:50;99515.56;;;19.59;44.43
40075;BME280;26529;51.530;11.754;2023-04-29T01:52:16;99519.19;;;19.58;44.38
40075;BME280;26529;51.530;11.754;2023-04-29T01:54:49;99520.06;;;19.58;44.34
40075;BME280;26529;51.530;11.754;2023-04-29T01:57:16;99521.00;;;19.57;44.39
40075;BME280;26529;51.530;11.754;2023-04-29T01:59:51;99520.16;;;19.57;44.24
40075;BME280;26529;51.530;11.754;2023-04-29T02:02:35;99517.50;;;19.57;44.31
40075;BME280;26529;51.530;11.754;2023-04-29T02:05:11;99514.84;;;19.57;44.42
40075;BME280;26529;51.530;11.754;2023-04-29T02:07:40;99514.84;;;19.57;44.34
40075;BME280;26529;51.530;11.754;2023-04-29T02:10:06;99520.16;;;19.57;44.44
40075;BME280;26529;51.530;11.754;2023-04-29T02:12:34;99519.19;;;19.58;44.40
40075;BME280;26529;51.530;11.754;2023-04-29T02:15:00;99520.16;;;19.57;44.20
40075;BME280;26529;51.530;11.754;2023-04-29T02:17:26;99525.50;;;19.57;44.44
40075;BME280;26529;51.530;11.754;2023-04-29T02:19:52;99523.81;;;19.56;44.34
40075;BME280;26529;51.530;11.754;2023-04-29T02:22:20;99534.44;;;19.56;44.41
40075;BME280;26529;51.530;11.754;2023-04-29T02:24:45;99534.44;;;19.56;44.44
40075;BME280;26529;51.530;11.754;2023-04-29T02:27:11;99542.41;;;19.56;44.40
40075;BME280;26529;51.530;11.754;2023-04-29T02:29:36;99540.59;;;19.56;44.52
40075;BME280;26529;51.530;11.754;2023-04-29T02:32:02;99547.72;;;19.56;44.45
40075;BME280;26529;51.530;11.754;2023-04-29T02:34:27;99545.06;;;19.56;44.45
40075;BME280;26529;51.530;11.754;2023-04-29T02:36:53;99543.34;;;19.55;44.55
40075;BME280;26529;51.530;11.754;2023-04-29T02:39:20;99537.09;;;19.56;44.48
40075;BME280;26529;51.530;11.754;2023-04-29T02:41:46;99540.69;;;19.55;44.52
40075;BME280;26529;51.530;11.754;2023-04-29T02:44:11;99534.44;;;19.56;44.65
40075;BME280;26529;51.530;11.754;2023-04-29T02:46:37;99539.00;;;19.53;44.50
40075;BME280;26529;51.530;11.754;2023-04-29T02:49:22;99544.22;;;19.55;44.40
40075;BME280;26529;51.530;11.754;2023-04-29T02:52:05;99543.34;;;19.55;44.30
40075;BME280;26529;51.530;11.754;2023-04-29T02:54:51;99539.97;;;19.52;44.40
40075;BME280;26529;51.530;11.754;2023-04-29T02:57:16;99533.69;;;19.53;44.47
40075;BME280;26529;51.530;11.754;2023-04-29T02:59:42;99542.53;;;19.54;44.26
40075;BME280;26529;51.530;11.754;2023-04-29T03:02:08;99544.31;;;19.53;44.52
40075;BME280;26529;51.530;11.754;2023-04-29T03:04:34;99538.03;;;19.55;44.46
40075;BME280;26529;51.530;11.754;2023-04-29T03:06:59;99538.03;;;19.55;44.36
40075;BME280;26529;51.530;11.754;2023-04-29T03:09:25;99530.19;;;19.53;44.59
40075;BME280;26529;51.530;11.754;2023-04-29T03:11:51;99528.38;;;19.53;44.54
40075;BME280;26529;51.530;11.754;2023-04-29T03:14:18;99530.31;;;19.51;44.46
40075;BME280;26529;51.530;11.754;2023-04-29T03:16:43;99533.81;;;19.52;44.46
40075;BME280;26529;51.530;11.754;2023-04-29T03:19:09;99535.63;;;19.51;44.49
40075;BME280;26529;51.530;11.754;2023-04-29T03:21:34;99539.97;;;19.52;44.46
40075;BME280;26529;51.530;11.754;2023-04-29T03:24:00;99539.97;;;19.52;44.55
40075;BME280;26529;51.530;11.754;2023-04-29T03:26:31;99533.81;;;19.52;44.53
40075;BME280;26529;51.530;11.754;2023-04-29T03:28:57;99537.31;;;19.52;44.52
40075;BME280;26529;51.530;11.754;2023-04-29T03:31:24;99534.66;;;19.52;44.49
40075;BME280;26529;51.530;11.754;2023-04-29T03:33:51;99538.16;;;19.53;44.48
40075;BME280;26529;51.530;11.754;2023-04-29T03:36:18;99538.28;;;19.51;44.51
40075;BME280;26529;51.530;11.754;2023-04-29T03:38:57;99538.28;;;19.51;44.61
40075;BME280;26529;51.530;11.754;2023-04-29T03:41:23;99542.75;;;19.51;44.45
40075;BME280;26529;51.530;11.754;2023-04-29T03:43:49;99546.25;;;19.51;44.42
40075;BME280;26529;51.530;11.754;2023-04-29T03:46:16;99545.41;;;19.51;44.63
40075;BME280;26529;51.530;11.754;2023-04-29T03:48:41;99547.13;;;19.52;44.54
40075;BME280;26529;51.530;11.754;2023-04-29T03:51:07;99544.56;;;19.50;44.56
40075;BME280;26529;51.530;11.754;2023-04-29T03:53:33;99552.44;;;19.52;44.37
40075;BME280;26529;51.530;11.754;2023-04-29T03:56:01;99548.91;;;19.51;44.37
40075;BME280;26529;51.530;11.754;2023-04-29T03:58:27;99548.19;;;19.49;44.63
40075;BME280;26529;51.530;11.754;2023-04-29T04:00:53;99550.72;;;19.51;44.55
40075;BME280;26529;51.530;11.754;2023-04-29T04:03:22;99552.53;;;19.50;44.40
40075;BME280;26529;51.530;11.754;2023-04-29T04:05:49;99555.22;;;19.50;44.49
40075;BME280;26529;51.530;11.754;2023-04-29T04:08:15;99549.88;;;19.50;44.76
40075;BME280;26529;51.530;11.754;2023-04-29T04:10:53;99557.88;;;19.50;44.63
40075;BME280;26529;51.530;11.754;2023-04-29T04:13:31;99554.34;;;19.50;44.56
40075;BME280;26529;51.530;11.754;2023-04-29T04:15:57;99557.88;;;19.50;44.62
40075;BME280;26529;51.530;11.754;2023-04-29T04:18:23;99562.22;;;19.51;44.58
40075;BME280;26529;51.530;11.754;2023-04-29T04:20:49;99569.31;;;19.51;44.49
40075;BME280;26529;51.530;11.754;2023-04-29T04:23:14;99566.81;;;19.49;44.61
40075;BME280;26529;51.530;11.754;2023-04-29T04:25:48;99563.19;;;19.50;44.55
40075;BME280;26529;51.530;11.754;2023-04-29T04:28:39;99565.13;;;19.48;44.48
40075;BME280;26529;51.530;11.754;2023-04-29T04:31:10;99570.44;;;19.48;44.65
40075;BME280;26529;51.530;11.754;2023-04-29T04:33:39;99573.81;;;19.50;44.55
40075;BME280;26529;51.530;11.754;2023-04-29T04:36:05;99571.16;;;19.50;44.57
40075;BME280;26529;51.530;11.754;2023-04-29T04:38:31;99571.16;;;19.50;44.62
40075;BME280;26529;51.530;11.754;2023-04-29T04:40:57;99569.56;;;19.48;44.49
40075;BME280;26529;51.530;11.754;2023-04-29T04:43:34;99573.09;;;19.48;44.56
40075;BME280;26529;51.530;11.754;2023-04-29T04:46:09;99575.75;;;19.48;44.56
40075;BME280;26529;51.530;11.754;2023-04-29T04:48:36;99579.25;;;19.49;44.70
40075;BME280;26529;51.530;11.754;2023-04-29T04:51:12;99581.06;;;19.48;44.53
40075;BME280;26529;51.530;11.754;2023-04-29T04:53:39;99582.75;;;19.49;44.63
40075;BME280;26529;51.530;11.754;2023-04-29T04:56:16;99584.56;;;19.49;44.72
40075;BME280;26529;51.530;11.754;2023-04-29T04:58:41;99583.72;;;19.48;44.69
40075;BME280;26529;51.530;11.754;2023-04-29T05:01:07;99586.38;;;19.48;44.53
40075;BME280;26529;51.530;11.754;2023-04-29T05:03:32;99599.53;;;19.50;44.59
40075;BME280;26529;51.530;11.754;2023-04-29T05:05:59;99597.97;;;19.47;44.43
40075;BME280;26529;51.530;11.754;2023-04-29T05:08:25;99597.03;;;19.48;44.69
40075;BME280;26529;51.530;11.754;2023-04-29T05:10:52;99603.06;;;19.50;44.57
40075;BME280;26529;51.530;11.754;2023-04-29T05:13:19;99601.22;;;19.51;44.66
40075;BME280;26529;51.530;11.754;2023-04-29T05:15:45;99598.47;;;19.52;44.79
40075;BME280;26529;51.530;11.754;2023-04-29T05:18:13;99602.81;;;19.53;44.59
40075;BME280;26529;51.530;11.754;2023-04-29T05:20:41;99599.19;;;19.55;44.52
40075;BME280;26529;51.530;11.754;2023-04-29T05:23:07;99607.91;;;19.57;44.54
40075;BME280;26529;51.530;11.754;2023-04-29T05:25:37;99606.09;;;19.57;44.51
40075;BME280;26529;51.530;11.754;2023-04-29T05:28:03;99610.31;;;19.60;44.53
40075;BME280;26529;51.530;11.754;2023-04-29T05:30:33;99613.75;;;19.62;44.50
40075;BME280;26529;51.530;11.754;2023-04-29T05:32:59;99610.13;;;19.63;44.46
40075;BME280;26529;51.530;11.754;2023-04-29T05:35:24;99617.94;;;19.64;44.29
40075;BME280;26529;51.530;11.754;2023-04-29T05:37:50;99620.50;;;19.66;44.49
40075;BME280;26529;51.530;11.754;2023-04-29T05:40:37;99618.81;;;19.65;44.46
40075;BME280;26529;51.530;11.754;2023-04-29T05:43:25;99626.69;;;19.66;44.61
40075;BME280;26529;51.530;11.754;2023-04-29T05:45:52;99630.16;;;19.67;44.40
40075;BME280;26529;51.530;11.754;2023-04-29T05:48:17;99620.50;;;19.66;44.48
40075;BME280;26529;51.530;11.754;2023-04-29T05:50:43;99627.50;;;19.67;44.52
40075;BME280;26529;51.530;11.754;2023-04-29T05:53:08;99631.88;;;19.68;44.46
40075;BME280;26529;51.530;11.754;2023-04-29T05:55:34;99627.50;;;19.67;44.52
40075;BME280;26529;51.530;11.754;2023-04-29T05:58:00;99634.53;;;19.68;44.50
40075;BME280;26529;51.530;11.754;2023-04-29T06:00:25;99636.34;;;19.68;44.51
40075;BME280;26529;51.530;11.754;2023-04-29T06:02:59;99641.66;;;19.68;44.77
40075;BME280;26529;51.530;11.754;2023-04-29T06:05:26;99651.34;;;19.69;44.65
40075;BME280;26529;51.530;11.754;2023-04-29T06:08:11;99646.88;;;19.69;44.50
40075;BME280;26529;51.530;11.754;2023-04-29T06:10:47;99652.91;;;19.71;44.50
40075;BME280;26529;51.530;11.754;2023-04-29T06:13:16;99658.97;;;19.73;44.54
40075;BME280;26529;51.530;11.754;2023-04-29T06:15:41;99658.97;;;19.73;44.46
40075;BME280;26529;51.530;11.754;2023-04-29T06:18:07;99666.84;;;19.75;44.62
40075;BME280;26529;51.530;11.754;2023-04-29T06:20:32;99667.69;;;19.75;44.57
40075;BME280;26529;51.530;11.754;2023-04-29T06:22:58;99667.56;;;19.77;44.56
40075;BME280;26529;51.530;11.754;2023-04-29T06:25:23;99671.09;;;19.77;44.59
40075;BME280;26529;51.530;11.754;2023-04-29T06:27:50;99675.44;;;19.78;44.67
40075;BME280;26529;51.530;11.754;2023-04-29T06:30:18;99680.66;;;19.80;44.55
40075;BME280;26529;51.530;11.754;2023-04-29T06:32:44;99680.66;;;19.80;44.58
40075;BME280;26529;51.530;11.754;2023-04-29T06:35:09;99683.16;;;19.82;44.65
40075;BME280;26529;51.530;11.754;2023-04-29T06:37:52;99684.88;;;19.83;44.52
40075;BME280;26529;51.530;11.754;2023-04-29T06:40:36;99685.72;;;19.83;44.51
40075;BME280;26529;51.530;11.754;2023-04-29T06:43:06;99690.94;;;19.85;44.64
40075;BME280;26529;51.530;11.754;2023-04-29T06:45:32;99689.25;;;19.84;44.51
40075;BME280;26529;51.530;11.754;2023-04-29T06:48:07;99690.06;;;19.84;44.70
40075;BME280;26529;51.530;11.754;2023-04-29T06:50:48;99697.22;;;19.84;44.50
40075;BME280;26529;51.530;11.754;2023-04-29T06:53:13;99690.94;;;19.85;44.62
40075;BME280;26529;51.530;11.754;2023-04-29T06:55:39;99694.44;;;19.85;44.43
40075;BME280;26529;51.530;11.754;2023-04-29T06:58:05;99703.25;;;19.86;44.53
40075;BME280;26529;51.530;11.754;2023-04-29T07:00:32;99698.91;;;19.85;44.42
40075;BME280;26529;51.530;11.754;2023-04-29T07:02:58;99701.47;;;19.86;44.49
40075;BME280;26529;51.530;11.754;2023-04-29T07:05:23;99705.09;;;19.85;44.54
40075;BME280;26529;51.530;11.754;2023-04-29T07:07:49;99717.41;;;19.86;44.43
40075;BME280;26529;51.530;11.754;2023-04-29T07:10:17;99712.09;;;19.86;44.44
40075;BME280;26529;51.530;11.754;2023-04-29T07:12:42;99713.06;;;19.85;44.46
40075;BME280;26529;51.530;11.754;2023-04-29T07:15:08;99714.88;;;19.85;44.49
40075;BME280;26529;51.530;11.754;2023-04-29T07:17:34;99721.88;;;19.86;44.50
40075;BME280;26529;51.530;11.754;2023-04-29T07:19:59;99719.22;;;19.86;44.48
40075;BME280;26529;51.530;11.754;2023-04-29T07:22:25;99727.19;;;19.86;44.66
40075;BME280;26529;51.530;11.754;2023-04-29T07:24:53;99733.38;;;19.86;44.45
40075;BME280;26529;51.530;11.754;2023-04-29T07:27:20;99730.72;;;19.86;44.51
40075;BME280;26529;51.530;11.754;2023-04-29T07:29:45;99735.19;;;19.86;44.36
40075;BME280;26529;51.530;11.754;2023-04-29T07:32:11;99736.03;;;19.86;44.55
40075;BME280;26529;51.530;11.754;2023-04-29T07:34:37;99739.53;;;19.87;44.35
40075;BME280;26529;51.530;11.754;2023-04-29T07:37:02;99737.84;;;19.86;44.67
40075;BME280;26529;51.530;11.754;2023-04-29T07:39:28;99737.84;;;19.86;44.58
40075;BME280;26529;51.530;11.754;2023-04-29T07:41:56;99732.53;;;19.86;44.40
40075;BME280;26529;51.530;11.754;2023-04-29T07:44:21;99750.19;;;19.87;44.46
40075;BME280;26529;51.530;11.754;2023-04-29T07:46:47;99750.06;;;19.88;44.46
40075;BME280;26529;51.530;11.754;2023-04-29T07:49:13;99747.53;;;19.87;44.57
40075;BME280;26529;51.530;11.754;2023-04-29T07:51:42;99756.38;;;19.87;44.54
40075;BME280;26529;51.530;11.754;2023-04-29T07:54:09;99751.88;;;19.88;44.34
40075;BME280;26529;51.530;11.754;2023-04-29T07:56:35;99751.88;;;19.88;44.61
40075;BME280;26529;51.530;11.754;2023-04-29T07:59:00;99762.50;;;19.88;44.60
40075;BME280;26529;51.530;11.754;2023-04-29T08:01:27;99770.50;;;19.88;44.65
40075;BME280;26529;51.530;11.754;2023-04-29T08:03:53;99767.84;;;19.88;44.38
40075;BME280;26529;51.530;11.754;2023-04-29T08:06:21;99777.53;;;19.89;44.39
40075;BME280;26529;51.530;11.754;2023-04-29T08:08:47;99781.03;;;19.89;44.40
40075;BME280;26529;51.530;11.754;2023-04-29T08:11:19;99787.22;;;19.90;44.54
40075;BME280;26529;51.530;11.754;2023-04-29T08:13:45;99785.53;;;19.89;44.66
40075;BME280;26529;51.530;11.754;2023-04-29T08:16:11;99789.00;;;19.89;44.50
40075;BME280;26529;51.530;11.754;2023-04-29T08:18:38;99789.88;;;19.90;44.32
40075;BME280;26529;51.530;11.754;2023-04-29T08:21:03;99796.03;;;19.90;44.15
40075;BME280;26529;51.530;11.754;2023-04-29T08:23:29;99797.84;;;19.90;44.39
40075;BME280;26529;51.530;11.754;2023-04-29T08:25:54;99811.16;;;19.90;44.45
40075;BME280;26529;51.530;11.754;2023-04-29T08:28:23;99808.50;;;19.90;44.60
40075;BME280;26529;51.530;11.754;2023-04-29T08:30:49;99814.78;;;19.89;44.56
40075;BME280;26529;51.530;11.754;2023-04-29T08:33:14;99822.78;;;19.89;44.54
40075;BME280;26529;51.530;11.754;2023-04-29T08:35:41;99816.69;;;19.87;44.58
40075;BME280;26529;51.530;11.754;2023-04-29T08:38:07;99821.81;;;19.90;44.78
40075;BME280;26529;51.530;11.754;2023-04-29T08:40:41;99826.16;;;19.91;44.70
40075;BME280;26529;51.530;11.754;2023-04-29T08:43:07;99834.88;;;19.93;44.92
40075;BME280;26529;51.530;11.754;2023-04-29T08:45:34;99823.25;;;19.94;44.82
40075;BME280;26529;51.530;11.754;2023-04-29T08:48:04;99832.97;;;19.95;44.91
40075;BME280;26529;51.530;11.754;2023-04-29T08:50:32;99845.31;;;19.96;45.07
40075;BME280;26529;51.530;11.754;2023-04-29T08:53:01;99840.84;;;19.97;44.81
40075;BME280;26529;51.530;11.754;2023-04-29T08:55:27;99847.03;;;19.97;45.14
40075;BME280;26529;51.530;11.754;2023-04-29T08:57:54;99849.69;;;19.97;45.30
40075;BME280;26529;51.530;11.754;2023-04-29T09:00:21;99848.72;;;19.98;45.00
40075;BME280;26529;51.530;11.754;2023-04-29T09:02:50;99845.94;;;20.00;44.92
40075;BME280;26529;51.530;11.754;2023-04-29T09:05:17;99851.13;;;20.01;45.18
40075;BME280;26529;51.530;11.754;2023-04-29T09:07:43;99852.00;;;20.02;45.18
40075;BME280;26529;51.530;11.754;2023-04-29T09:10:09;99853.59;;;20.04;45.26
40075;BME280;26529;51.530;11.754;2023-04-29T09:12:35;99861.56;;;20.04;45.36
40075;BME280;26529;51.530;11.754;2023-04-29T09:15:01;99858.91;;;20.04;45.44
40075;BME280;26529;51.530;11.754;2023-04-29T09:17:41;99865.94;;;20.05;45.48
40075;BME280;26529;51.530;11.754;2023-04-29T09:22:52;99867.63;;;20.06;45.74
40075;BME280;26529;51.530;11.754;2023-04-29T09:25:18;99878.25;;;20.06;45.48
40075;BME280;26529;51.530;11.754;2023-04-29T09:27:44;99883.59;;;20.06;45.63
40075;BME280;26529;51.530;11.754;2023-04-29T09:30:09;99883.59;;;20.06;45.76
40075;BME280;26529;51.530;11.754;2023-04-29T09:32:36;99888.91;;;20.06;45.80
40075;BME280;26529;51.530;11.754;2023-04-29T09:35:24;99891.56;;;20.06;45.82
40075;BME280;26529;51.530;11.754;2023-04-29T09:37:51;99893.41;;;20.06;45.99
40075;BME280;26529;51.530;11.754;2023-04-29T09:40:27;99904.88;;;20.06;46.21
40075;BME280;26529;51.530;11.754;2023-04-29T09:42:55;99903.19;;;20.05;45.99
40075;BME280;26529;51.530;11.754;2023-04-29T09:45:37;99902.31;;;20.05;45.57
40075;BME280;26529;51.530;11.754;2023-04-29T09:48:04;99911.16;;;20.05;46.22
40075;BME280;26529;51.530;11.754;2023-04-29T09:50:41;99920.13;;;20.04;46.01
40075;BME280;26529;51.530;11.754;2023-04-29T09:53:10;99922.78;;;20.04;45.96
40075;BME280;26529;51.530;11.754;2023-04-29T09:55:38;99932.56;;;20.04;45.72
40075;BME280;26529;51.530;11.754;2023-04-29T09:58:32;99936.09;;;20.04;45.32
40075;BME280;26529;51.530;11.754;2023-04-29T10:01:05;99942.38;;;20.03;45.39
40075;BME280;26529;51.530;11.754;2023-04-29T10:03:37;99951.09;;;20.05;45.71
40075;BME280;26529;51.530;11.754;2023-04-29T10:06:04;99952.88;;;20.05;45.84
40075;BME280;26529;51.530;11.754;2023-04-29T10:08:31;99954.72;;;20.04;45.50
40075;BME280;26529;51.530;11.754;2023-04-29T10:11:02;99960.03;;;20.04;45.44
40075;BME280;26529;51.530;11.754;2023-04-29T10:13:29;99969.72;;;20.05;45.36
40075;BME280;26529;51.530;11.754;2023-04-29T10:16:12;99965.34;;;20.04;45.48
40075;BME280;26529;51.530;11.754;2023-04-29T10:18:40;99965.25;;;20.06;46.07
40075;BME280;26529;51.530;11.754;2023-04-29T10:21:07;99963.53;;;20.05;45.77
40075;BME280;26529;51.530;11.754;2023-04-29T10:23:36;99973.25;;;20.06;45.79
40075;BME280;26529;51.530;11.754;2023-04-29T10:26:02;99970.69;;;20.04;45.63
40075;BME280;26529;51.530;11.754;2023-04-29T10:28:31;99971.50;;;20.05;45.92
40075;BME280;26529;51.530;11.754;2023-04-29T10:31:00;99978.56;;;20.06;45.79
40075;BME280;26529;51.530;11.754;2023-04-29T10:33:29;99976.84;;;20.05;46.25
40075;BME280;26529;51.530;11.754;2023-04-29T10:35:55;99980.25;;;20.07;46.07
40075;BME280;26529;51.530;11.754;2023-04-29T10:38:27;99979.28;;;20.08;45.68
40075;BME280;26529;51.530;11.754;2023-04-29T10:40:55;99981.00;;;20.09;45.92
40075;BME280;26529;51.530;11.754;2023-04-29T10:43:25;99986.22;;;20.11;45.89
40075;BME280;26529;51.530;11.754;2023-04-29T10:46:16;99991.53;;;20.11;46.12
40075;BME280;26529;51.530;11.754;2023-04-29T10:48:43;99992.38;;;20.11;46.35
40075;BME280;26529;51.530;11.754;2023-04-29T10:51:08;99993.22;;;20.12;46.08
40075;BME280;26529;51.530;11.754;2023-04-29T10:53:34;100003.00;;;20.11;46.23
40075;BME280;26529;51.530;11.754;2023-04-29T10:56:06;100003.88;;;20.12;46.21
40075;BME280;26529;51.530;11.754;2023-04-29T10:58:43;100000.25;;;20.13;46.29
40075;BME280;26529;51.530;11.754;2023-04-29T11:01:11;100004.59;;;20.14;46.45
40075;BME280;26529;51.530;11.754;2023-04-29T11:04:01;100008.97;;;20.15;46.26
40075;BME280;26529;51.530;11.754;2023-04-29T11:09:19;100019.63;;;20.15;46.94
40075;BME280;26529;51.530;11.754;2023-04-29T11:11:47;100013.47;;;20.14;47.13
40075;BME280;26529;51.530;11.754;2023-04-29T11:14:15;100018.69;;;20.16;46.55
40075;BME280;26529;51.530;11.754;2023-04-29T11:16:46;100019.50;;;20.16;47.30
40075;BME280;26529;51.530;11.754;2023-04-29T11:19:15;100023.03;;;20.17;47.03
40075;BME280;26529;51.530;11.754;2023-04-29T11:21:41;100028.38;;;20.17;47.06
40075;BME280;26529;51.530;11.754;2023-04-29T11:24:06;100025.69;;;20.17;47.23
40075;BME280;26529;51.530;11.754;2023-04-29T11:26:35;100019.41;;;20.18;47.48
40075;BME280;26529;51.530;11.754;2023-04-29T11:29:01;100023.03;;;20.17;47.39
40075;BME280;26529;51.530;11.754;2023-04-29T11:31:31;100030.06;;;20.18;47.39
40075;BME280;26529;51.530;11.754;2023-04-29T11:33:57;100030.06;;;20.18;47.39
40075;BME280;26529;51.530;11.754;2023-04-29T11:36:23;100023.03;;;20.17;47.57
40075;BME280;26529;51.530;11.754;2023-04-29T11:38:49;100039.00;;;20.17;47.37
40075;BME280;26529;51.530;11.754;2023-04-29T11:41:15;100046.03;;;20.18;47.22
40075;BME280;26529;51.530;11.754;2023-04-29T11:43:41;100043.38;;;20.18;46.70
40075;BME280;26529;51.530;11.754;2023-04-29T11:46:11;100050.50;;;20.17;46.93
40075;BME280;26529;51.530;11.754;2023-04-29T11:48:45;100047.00;;;20.17;47.51
40075;BME280;26529;51.530;11.754;2023-04-29T11:51:12;100049.66;;;20.17;47.10
40075;BME280;26529;51.530;11.754;2023-04-29T11:53:38;100053.28;;;20.16;47.74
40075;BME280;26529;51.530;11.754;2023-04-29T11:56:03;100060.50;;;20.14;47.91
40075;BME280;26529;51.530;11.754;2023-04-29T11:58:29;100048.78;;;20.16;47.13
40075;BME280;26529;51.530;11.754;2023-04-29T12:00:57;100060.31;;;20.17;47.28
40075;BME280;26529;51.530;11.754;2023-04-29T12:03:22;100062.19;;;20.15;47.19
40075;BME280;26529;51.530;11.754;2023-04-29T12:05:52;100067.53;;;20.15;47.00
40075;BME280;26529;51.530;11.754;2023-04-29T12:08:22;100074.78;;;20.13;47.02
40075;BME280;26529;51.530;11.754;2023-04-29T12:10:48;100068.63;;;20.12;46.96
40075;BME280;26529;51.530;11.754;2023-04-29T12:13:15;100077.44;;;20.13;46.91
40075;BME280;26529;51.530;11.754;2023-04-29T12:15:41;100067.75;;;20.12;47.23
40075;BME280;26529;51.530;11.754;2023-04-29T12:18:07;100077.34;;;20.14;46.93
40075;BME280;26529;51.530;11.754;2023-04-29T12:20:33;100070.94;;;20.17;47.23
40075;BME280;26529;51.530;11.754;2023-04-29T12:23:15;100078.94;;;20.17;47.25
40075;BME280;26529;51.530;11.754;2023-04-29T12:25:54;100076.03;;;20.20;46.82
40075;BME280;26529;51.530;11.754;2023-04-29T12:28:20;100084.03;;;20.20;47.25
40075;BME280;26529;51.530;11.754;2023-04-29T12:30:46;100079.44;;;20.22;47.33
40075;BME280;26529;51.530;11.754;2023-04-29T12:35:51;100094.25;;;20.26;47.23
40075;BME280;26529;51.530;11.754;2023-04-29T12:38:25;100092.31;;;20.28;47.04
40075;BME280;26529;51.530;11.754;2023-04-29T12:40:52;100091.38;;;20.29;47.08
40075;BME280;26529;51.530;11.754;2023-04-29T12:43:18;100088.72;;;20.29;47.13
40075;BME280;26529;51.530;11.754;2023-04-29T12:45:44;100092.22;;;20.30;47.08
40075;BME280;26529;51.530;11.754;2023-04-29T12:48:11;100093.06;;;20.30;46.93
40075;BME280;26529;51.530;11.754;2023-04-29T12:50:38;100091.25;;;20.31;46.92
40075;BME280;26529;51.530;11.754;2023-04-29T12:53:04;100102.03;;;20.29;47.06
40075;BME280;26529;51.530;11.754;2023-04-29T12:55:34;100100.28;;;20.28;47.18
40075;BME280;26529;51.530;11.754;2023-04-29T12:58:01;100101.25;;;20.27;47.08
40075;BME280;26529;51.530;11.754;2023-04-29T13:00:26;100103.94;;;20.27;46.78
40075;BME280;26529;51.530;11.754;2023-04-29T13:02:52;100103.94;;;20.27;46.38
40075;BME280;26529;51.530;11.754;2023-04-29T13:05:17;100104.78;;;20.28;46.80
40075;BME280;26529;51.530;11.754;2023-04-29T13:07:43;100099.56;;;20.26;46.26
40075;BME280;26529;51.530;11.754;2023-04-29T13:10:09;100103.19;;;20.25;46.40
40075;BME280;26529;51.530;11.754;2023-04-29T13:12:36;100101.41;;;20.26;46.14
40075;BME280;26529;51.530;11.754;2023-04-29T13:15:02;100105.00;;;20.25;46.36
40075;BME280;26529;51.530;11.754;2023-04-29T13:17:28;100104.16;;;20.24;46.44